Time;durP1;ratioP1;P1;durP2;ratioP2;P2;SDS_P1;SDS_P2;PMS_P1;PMS_P2;Temp;Humidity;BMP_temperature;BMP_pressure;BME280_temperature;BME280_humidity;BME280_pressure;Samples;Min_cycle;Max_cycle;Signal;HPM_P1;HPM_P2
2022/07/22 00:00:13;;;;;;;8.98;7.05;;;;;;;18.76;100.00;96585.94;5063102;28;20508;-77
2022/07/22 00:02:39;;;;;;;10.70;7.50;;;;;;;18.52;100.00;96589.94;5065951;28;20028;-76
2022/07/22 00:05:06;;;;;;;12.30;8.07;;;;;;;18.42;100.00;96594.81;5072228;28;20035;-78
2022/07/22 00:07:32;;;;;;;11.30;7.95;;;;;;;18.48;100.00;96594.84;5062447;28;20490;-76
2022/07/22 00:09:58;;;;;;;11.27;8.32;;;;;;;18.34;100.00;96595.78;5071678;28;20046;-75
2022/07/22 00:12:23;;;;;;;11.98;7.85;;;;;;;18.26;100.00;96591.47;5043418;28;20032;-75
2022/07/22 00:14:49;;;;;;;9.98;7.72;;;;;;;18.27;100.00;96590.44;5052108;28;20044;-77
2022/07/22 00:17:15;;;;;;;10.82;7.38;;;;;;;18.20;100.00;96591.44;5047806;28;20060;-76
2022/07/22 00:19:41;;;;;;;14.57;8.77;;;;;;;18.21;100.00;96588.59;5055907;28;20590;-77
2022/07/22 00:22:06;;;;;;;10.35;8.35;;;;;;;18.14;100.00;96593.91;5074583;28;20520;-76
2022/07/22 00:24:32;;;;;;;10.55;7.88;;;;;;;18.12;100.00;96589.78;5059401;28;20054;-77
2022/07/22 00:26:58;;;;;;;11.57;7.35;;;;;;;18.19;100.00;96581.81;5075408;28;20052;-77
2022/07/22 00:29:24;;;;;;;9.43;7.30;;;;;;;18.25;100.00;96584.50;5061202;28;20025;-77
2022/07/22 00:31:50;;;;;;;11.60;7.35;;;;;;;18.10;100.00;96589.97;5061487;28;20474;-77
2022/07/22 00:34:15;;;;;;;9.32;7.25;;;;;;;18.03;100.00;96583.78;5077280;28;20024;-76
2022/07/22 00:36:41;;;;;;;10.05;7.65;;;;;;;18.09;100.00;96585.66;5046348;28;20067;-77
2022/07/22 00:39:07;;;;;;;9.82;7.28;;;;;;;18.12;100.00;96579.13;5059341;28;20028;-77
2022/07/22 00:41:32;;;;;;;8.90;7.20;;;;;;;18.19;100.00;96581.81;5068776;28;20040;-76
2022/07/22 00:44:01;;;;;;;10.20;7.38;;;;;;;18.18;100.00;96585.53;5054883;28;20028;-77
2022/07/22 00:46:28;;;;;;;13.50;8.55;;;;;;;18.25;100.00;96578.38;5055160;28;20029;-77
2022/07/22 00:48:54;;;;;;;12.02;7.25;;;;;;;18.14;100.00;96577.06;5064624;28;20166;-76
2022/07/22 00:51:22;;;;;;;11.93;8.00;;;;;;;17.88;100.00;96572.47;5061854;28;20628;-77
2022/07/22 00:53:49;;;;;;;15.70;7.80;;;;;;;17.78;100.00;96574.66;5043555;28;20026;-76
2022/07/22 00:56:16;;;;;;;11.05;7.18;;;;;;;17.73;100.00;96572.53;5079832;28;20016;-76
2022/07/22 00:58:42;;;;;;;10.38;7.25;;;;;;;17.87;100.00;96576.13;5056544;28;20035;-77
2022/07/22 01:01:08;;;;;;;10.20;6.97;;;;;;;17.83;100.00;96572.22;5052243;28;20037;-77
2022/07/22 01:03:34;;;;;;;9.60;6.90;;;;;;;17.70;100.00;96574.78;5041003;28;20038;-77
2022/07/22 01:06:00;;;;;;;11.77;7.70;;;;;;;17.68;100.00;96569.66;5057269;28;20024;-76
2022/07/22 01:08:26;;;;;;;11.85;7.47;;;;;;;17.62;100.00;96568.59;5065763;28;20111;-76
2022/07/22 01:10:52;;;;;;;11.63;7.30;;;;;;;17.67;100.00;96571.50;5041567;28;20123;-77
2022/07/22 01:13:17;;;;;;;10.30;7.47;;;;;;;17.61;100.00;96569.63;5051613;28;20034;-77
2022/07/22 01:15:44;;;;;;;10.00;7.00;;;;;;;17.58;100.00;96566.53;5048228;28;20067;-77
2022/07/22 01:18:10;;;;;;;10.00;7.40;;;;;;;17.55;100.00;96567.75;5048258;28;20068;-77
2022/07/22 01:20:36;;;;;;;11.45;7.28;;;;;;;17.61;100.00;96566.97;5059219;28;20082;-77
2022/07/22 01:23:02;;;;;;;9.82;7.45;;;;;;;17.52;100.00;96568.13;5059620;28;20039;-77
2022/07/22 01:25:28;;;;;;;8.38;7.05;;;;;;;17.37;100.00;96565.59;5044050;28;20032;-75
2022/07/22 01:27:55;;;;;;;8.98;6.80;;;;;;;17.32;100.00;96570.66;5037746;28;20028;-77
2022/07/22 01:30:20;;;;;;;9.10;6.78;;;;;;;17.43;100.00;96563.97;5053758;28;20051;-74
2022/07/22 01:32:47;;;;;;;9.43;7.10;;;;;;;17.40;100.00;96562.53;5058328;28;20727;-75
2022/07/22 01:35:12;;;;;;;10.85;6.80;;;;;;;17.47;100.00;96567.06;5036340;28;20028;-76
2022/07/22 01:37:38;;;;;;;9.57;7.70;;;;;;;17.49;100.00;96573.00;5053050;28;20028;-76
2022/07/22 01:40:04;;;;;;;8.80;6.72;;;;;;;17.30;100.00;96563.88;5078773;28;20044;-77
2022/07/22 01:42:30;;;;;;;10.63;7.85;;;;;;;17.15;100.00;96562.13;5044613;28;20037;-77
2022/07/22 01:44:56;;;;;;;8.57;6.95;;;;;;;17.20;100.00;96567.72;5040943;28;20032;-76
2022/07/22 01:47:21;;;;;;;10.60;7.50;;;;;;;17.28;100.00;96561.41;5031554;28;20033;-77
2022/07/22 01:49:47;;;;;;;8.95;7.55;;;;;;;17.31;100.00;96554.91;5040433;28;20035;-77
2022/07/22 01:52:13;;;;;;;10.02;6.45;;;;;;;17.23;100.00;96563.00;5062454;28;20024;-76
2022/07/22 01:54:41;;;;;;;9.32;7.75;;;;;;;17.13;100.00;96569.47;5070903;28;20060;-75
2022/07/22 01:57:07;;;;;;;11.30;7.53;;;;;;;17.08;100.00;96566.56;5056563;28;20020;-77
2022/07/22 01:59:34;;;;;;;8.55;7.05;;;;;;;17.13;100.00;96564.16;5076920;28;20028;-75
2022/07/22 02:02:01;;;;;;;10.50;7.55;;;;;;;17.15;100.00;96570.09;5041373;28;20044;-77
2022/07/22 02:04:27;;;;;;;10.52;7.97;;;;;;;17.16;100.00;96569.09;5050982;28;20036;-77
2022/07/22 02:06:53;;;;;;;9.40;7.80;;;;;;;17.00;100.00;96574.69;5055075;28;20047;-77
2022/07/22 02:09:19;;;;;;;12.55;8.38;;;;;;;17.08;100.00;96569.22;5046752;28;20033;-77
2022/07/22 02:11:48;;;;;;;10.05;8.05;;;;;;;17.07;100.00;96570.25;5077838;28;20032;-76
2022/07/22 02:14:15;;;;;;;11.73;8.95;;;;;;;16.85;100.00;96577.41;5060851;28;20029;-76
2022/07/22 02:16:42;;;;;;;9.43;7.93;;;;;;;16.90;100.00;96568.84;5036134;28;20020;-77
2022/07/22 02:19:10;;;;;;;13.05;8.93;;;;;;;16.90;100.00;96569.69;5045410;28;20034;-77
2022/07/22 02:21:37;;;;;;;13.48;7.93;;;;;;;16.96;100.00;96560.94;5078621;28;20024;-77
2022/07/22 02:24:03;;;;;;;12.98;8.40;;;;;;;16.89;100.00;96556.59;5047808;28;20051;-77
2022/07/22 02:26:29;;;;;;;10.05;8.07;;;;;;;16.82;100.00;96558.38;5061024;28;20115;-77
2022/07/22 02:28:55;;;;;;;10.63;8.35;;;;;;;16.75;100.00;96560.16;5045245;28;20568;-77
2022/07/22 02:31:22;;;;;;;12.70;8.13;;;;;;;16.82;100.00;96559.19;5046566;28;20039;-77
2022/07/22 02:33:47;;;;;;;10.50;8.23;;;;;;;16.87;100.00;96558.63;5052582;28;20051;-75
2022/07/22 02:36:13;;;;;;;11.68;8.18;;;;;;;16.79;100.00;96558.75;5039679;28;20052;-77
2022/07/22 02:38:43;;;;;;;10.27;7.45;;;;;;;16.73;100.00;96553.16;5047528;28;20381;-76
2022/07/22 02:41:09;;;;;;;10.95;8.43;;;;;;;16.77;100.00;96558.09;5044608;28;20051;-77
2022/07/22 02:43:38;;;;;;;9.70;7.45;;;;;;;16.73;100.00;96555.81;5080142;28;20032;-76
2022/07/22 02:46:05;;;;;;;10.98;7.53;;;;;;;16.76;100.00;96553.81;5050277;28;20147;-76
2022/07/22 02:48:31;;;;;;;8.68;7.05;;;;;;;16.69;100.00;96551.88;5025291;28;20115;-77
2022/07/22 02:50:56;;;;;;;9.95;7.80;;;;;;;16.64;100.00;96558.78;5046729;28;20553;-76
2022/07/22 02:53:25;;;;;;;12.15;7.85;;;;;;;16.65;100.00;96549.81;5036306;28;20114;-76
2022/07/22 02:55:51;;;;;;;11.77;7.82;;;;;;;16.58;100.00;96551.56;5041772;28;20028;-77
2022/07/22 02:58:17;;;;;;;11.00;7.82;;;;;;;16.59;100.00;96562.00;5034298;28;20016;-77
2022/07/22 03:00:44;;;;;;;9.82;7.80;;;;;;;16.51;100.00;96564.78;5051302;28;20107;-76
2022/07/22 03:03:10;;;;;;;8.90;7.40;;;;;;;16.37;100.00;96565.66;5051854;28;20128;-76
2022/07/22 03:05:36;;;;;;;11.55;8.18;;;;;;;16.33;100.00;96567.00;5055754;28;20916;-77
2022/07/22 03:08:31;;;;;;;10.52;8.43;;;;;;;16.38;100.00;96561.97;4978848;28;20034;-75
2022/07/22 03:10:58;;;;;;;9.55;8.20;;;;;;;16.35;100.00;96565.81;5058387;28;20552;-76
2022/07/22 03:13:24;;;;;;;10.52;8.80;;;;;;;16.22;100.00;96570.97;5058120;28;20031;-77
2022/07/22 03:15:50;;;;;;;13.55;9.55;;;;;;;16.23;100.00;96573.47;5067624;28;20037;-77
2022/07/22 03:18:16;;;;;;;10.02;8.25;;;;;;;16.29;100.00;96563.09;5056262;28;20020;-77
2022/07/22 03:20:42;;;;;;;11.27;8.27;;;;;;;16.16;100.00;96561.97;5051434;28;20066;-76
2022/07/22 03:23:08;;;;;;;11.52;8.98;;;;;;;16.11;100.00;96563.50;5053090;28;20032;-73
2022/07/22 03:25:34;;;;;;;10.40;8.60;;;;;;;16.10;100.00;96564.53;5040405;28;20445;-75
2022/07/22 03:28:00;;;;;;;10.60;8.43;;;;;;;15.95;100.00;96564.53;5044982;28;20111;-77
2022/07/22 03:30:27;;;;;;;10.80;8.25;;;;;;;16.03;100.00;96562.59;5040100;28;20082;-77
2022/07/22 03:32:52;;;;;;;11.73;8.95;;;;;;;16.04;100.00;96579.34;5059131;28;20529;-78
2022/07/22 03:35:21;;;;;;;10.27;8.77;;;;;;;15.81;100.00;96573.34;5065871;28;20020;-77
2022/07/22 03:37:47;;;;;;;10.63;8.77;;;;;;;15.60;100.00;96576.69;5062287;28;20021;-77
2022/07/22 03:40:14;;;;;;;12.60;9.52;;;;;;;15.60;100.00;96582.00;5058834;28;20035;-77
2022/07/22 03:42:42;;;;;;;11.43;9.48;;;;;;;15.53;100.00;96582.72;5056458;28;20043;-78
2022/07/22 03:45:09;;;;;;;11.68;8.65;;;;;;;15.69;100.00;96579.09;5051973;28;20036;-78
2022/07/22 03:47:40;;;;;;;10.80;9.07;;;;;;;15.85;100.00;96579.91;5054971;28;20024;-78
2022/07/22 03:50:06;;;;;;;12.95;11.27;;;;;;;15.76;100.00;96580.00;5069248;28;20032;-77
2022/07/22 03:52:35;;;;;;;12.13;10.57;;;;;;;15.76;100.00;96572.06;5070024;28;20032;-78
2022/07/22 03:55:05;;;;;;;14.18;9.55;;;;;;;15.74;100.00;96576.72;5064713;28;20032;-77
2022/07/22 03:57:31;;;;;;;11.73;10.30;;;;;;;15.82;100.00;96578.44;5065970;28;20550;-78
2022/07/22 04:00:05;;;;;;;14.40;11.73;;;;;;;15.83;100.00;96576.59;5066259;28;20029;-78
2022/07/22 04:02:39;;;;;;;12.77;11.48;;;;;;;15.95;100.00;96577.78;5074961;28;20047;-78
2022/07/22 04:05:06;;;;;;;13.35;11.45;;;;;;;15.94;100.00;96581.47;5065803;28;20024;-78
2022/07/22 04:07:33;;;;;;;14.68;10.90;;;;;;;16.01;100.00;96585.84;5060708;28;20027;-77
2022/07/22 04:10:04;;;;;;;12.95;11.65;;;;;;;16.10;100.00;96583.09;5058514;28;20342;-77
2022/07/22 04:12:35;;;;;;;14.43;11.77;;;;;;;16.06;100.00;96577.31;5049236;28;20602;-77
2022/07/22 04:15:12;;;;;;;15.02;11.63;;;;;;;16.11;100.00;96580.25;5066230;28;20580;-77
2022/07/22 04:17:37;;;;;;;13.32;11.70;;;;;;;16.24;100.00;96579.59;5055570;28;20036;-77
2022/07/22 04:20:05;;;;;;;17.00;13.32;;;;;;;16.24;100.00;96577.75;5064747;28;20454;-78
2022/07/22 04:22:39;;;;;;;13.80;11.00;;;;;;;16.28;100.00;96575.56;5046541;28;20800;-78
2022/07/22 04:25:05;;;;;;;15.65;12.05;;;;;;;16.39;100.00;96579.53;5054063;28;20102;-77
2022/07/22 04:27:30;;;;;;;13.38;11.98;;;;;;;16.45;100.00;96574.31;5062117;28;20024;-78
2022/07/22 04:29:56;;;;;;;13.35;11.63;;;;;;;16.50;100.00;96574.59;5040495;28;20032;-77
2022/07/22 04:32:22;;;;;;;12.35;10.90;;;;;;;16.56;100.00;96572.16;5074152;28;20037;-77
2022/07/22 04:34:49;;;;;;;10.98;9.55;;;;;;;16.65;100.00;96566.56;5067244;28;20034;-78
2022/07/22 04:37:15;;;;;;;12.27;10.45;;;;;;;16.68;100.00;96566.19;5052017;28;20424;-77
2022/07/22 04:39:40;;;;;;;10.93;9.52;;;;;;;16.73;100.00;96568.25;5057334;28;20078;-78
2022/07/22 04:42:06;;;;;;;11.57;10.20;;;;;;;16.79;100.00;96567.53;5059543;28;20036;-77
2022/07/22 04:44:32;;;;;;;11.05;9.80;;;;;;;16.77;100.00;96563.41;5047750;28;20048;-77
2022/07/22 04:46:58;;;;;;;11.02;9.55;;;;;;;16.89;100.00;96557.41;5065194;28;20035;-78
2022/07/22 04:49:25;;;;;;;12.30;9.65;;;;;;;16.83;100.00;96562.66;5047698;28;20082;-78
2022/07/22 04:51:52;;;;;;;12.18;10.00;;;;;;;16.89;100.00;96567.22;5051744;28;20036;-78
2022/07/22 04:54:28;;;;;;;11.77;9.43;;;;;;;16.96;100.00;96562.78;5043140;28;20485;-78
2022/07/22 04:56:57;;;;;;;11.25;9.07;;;;;;;17.01;100.00;96568.34;5052310;28;20024;-78
2022/07/22 04:59:23;;;;;;;11.75;8.95;;;;;;;17.08;100.00;96563.09;5044405;28;20094;-79
2022/07/22 05:01:49;;;;;;;11.77;9.57;;;;;;;16.97;100.00;96561.78;5042815;28;20030;-78
2022/07/22 05:04:16;;;;;;;12.77;10.43;;;;;;;17.05;100.00;96560.81;5053054;28;20115;-79
2022/07/22 05:06:44;;;;;;;11.63;10.10;;;;;;;17.09;100.00;96562.91;5030279;28;20108;-78
2022/07/22 05:09:10;;;;;;;13.32;9.90;;;;;;;17.09;100.00;96562.06;5057146;28;20139;-77
2022/07/22 05:11:35;;;;;;;11.38;8.80;;;;;;;17.27;100.00;96554.47;5070080;28;20036;-78
2022/07/22 05:14:02;;;;;;;10.48;9.30;;;;;;;17.26;100.00;96549.31;5054071;28;20056;-75
2022/07/22 05:16:28;;;;;;;10.73;9.35;;;;;;;17.22;100.00;96550.75;5049885;28;20427;-77
2022/07/22 05:18:54;;;;;;;13.68;10.52;;;;;;;17.13;100.00;96553.53;5071176;28;20097;-75
2022/07/22 05:21:20;;;;;;;12.00;10.40;;;;;;;17.17;100.00;96557.47;5055313;28;20036;-77
2022/07/22 05:23:46;;;;;;;12.13;9.98;;;;;;;17.40;100.00;96553.72;5054657;28;20027;-78
2022/07/22 05:26:14;;;;;;;14.27;11.43;;;;;;;17.60;100.00;96553.84;5056928;28;20634;-77
2022/07/22 05:28:40;;;;;;;12.43;9.27;;;;;;;17.86;100.00;96553.22;5055543;28;20446;-77
2022/07/22 05:31:07;;;;;;;13.15;11.25;;;;;;;17.74;100.00;96552.94;5051609;28;20521;-76
2022/07/22 05:33:33;;;;;;;17.15;14.20;;;;;;;17.98;100.00;96551.66;5053270;28;20073;-76
2022/07/22 05:36:05;;;;;;;11.77;10.57;;;;;;;18.20;100.00;96548.84;5049876;28;20390;-75
2022/07/22 05:38:42;;;;;;;13.85;10.35;;;;;;;18.46;100.00;96542.78;5058748;28;20064;-78
2022/07/22 05:41:08;;;;;;;11.57;10.05;;;;;;;18.74;100.00;96545.34;5058168;28;20058;-78
2022/07/22 05:43:34;;;;;;;13.35;9.52;;;;;;;18.71;100.00;96545.69;5045675;28;20035;-79
2022/07/22 05:46:03;;;;;;;11.05;9.85;;;;;;;18.97;100.00;96543.09;5066640;28;20335;-78
2022/07/22 05:48:29;;;;;;;12.88;8.60;;;;;;;19.11;100.00;96541.25;5041982;28;20053;-76
2022/07/22 05:50:54;;;;;;;12.55;10.20;;;;;;;19.17;100.00;96545.78;5026384;28;20481;-75
2022/07/22 05:53:20;;;;;;;12.77;8.98;;;;;;;19.32;100.00;96540.25;5045468;28;20024;-76
2022/07/22 05:55:46;;;;;;;24.13;21.70;;;;;;;19.46;100.00;96533.84;5036699;28;20031;-76
2022/07/22 05:58:12;;;;;;;12.50;10.77;;;;;;;19.47;100.00;96540.00;5032145;28;20025;-76
2022/07/22 06:00:39;;;;;;;12.25;10.32;;;;;;;19.67;100.00;96540.00;5054576;28;20020;-75
2022/07/22 06:03:05;;;;;;;12.60;9.77;;;;;;;19.73;100.00;96542.66;5056281;28;20389;-76
2022/07/22 06:05:35;;;;;;;16.92;11.52;;;;;;;19.81;100.00;96535.44;5034986;28;20143;-75
2022/07/22 06:08:02;;;;;;;13.57;11.77;;;;;;;19.94;100.00;96544.22;5053164;28;20025;-77
2022/07/22 06:10:35;;;;;;;14.25;10.93;;;;;;;19.83;100.00;96544.88;5047804;28;20047;-77
2022/07/22 06:13:02;;;;;;;12.80;10.50;;;;;;;20.29;100.00;96551.91;5052394;28;20036;-77
2022/07/22 06:15:27;;;;;;;10.27;9.05;;;;;;;20.90;100.00;96545.22;5033778;28;20097;-76
2022/07/22 06:17:54;;;;;;;14.32;11.02;;;;;;;21.08;100.00;96544.44;5055276;28;20471;-77
2022/07/22 06:20:20;;;;;;;11.98;10.18;;;;;;;20.60;100.00;96545.00;5044974;28;20028;-77
2022/07/22 06:22:46;;;;;;;14.55;11.00;;;;;;;20.70;100.00;96538.13;5052155;28;20032;-77
2022/07/22 06:25:12;;;;;;;12.82;9.13;;;;;;;21.25;100.00;96534.84;5035397;28;20028;-77
2022/07/22 06:27:38;;;;;;;12.27;9.82;;;;;;;21.17;100.00;96535.94;5049356;28;20024;-77
2022/07/22 06:30:06;;;;;;;14.65;10.15;;;;;;;21.87;100.00;96530.34;5035616;28;20067;-77
2022/07/22 06:32:32;;;;;;;11.95;9.13;;;;;;;21.76;100.00;96528.41;5063637;28;20074;-77
2022/07/22 06:34:59;;;;;;;12.63;10.05;;;;;;;21.87;100.00;96525.00;5035865;28;20029;-77
2022/07/22 06:37:24;;;;;;;13.90;11.27;;;;;;;21.68;100.00;96530.56;5055158;28;20052;-77
2022/07/22 06:39:50;;;;;;;14.13;10.55;;;;;;;22.04;100.00;96527.91;5055244;28;20135;-77
2022/07/22 06:42:19;;;;;;;11.70;8.93;;;;;;;22.56;100.00;96527.44;5055605;28;20039;-77
2022/07/22 06:45:04;;;;;;;14.27;9.07;;;;;;;23.20;100.00;96525.06;5058663;28;20573;-76
2022/07/22 06:47:40;;;;;;;12.07;9.18;;;;;;;23.16;100.00;96531.94;5037004;28;20028;-77
2022/07/22 06:50:09;;;;;;;13.00;9.60;;;;;;;23.07;100.00;96528.78;5039544;28;20033;-77
2022/07/22 06:52:39;;;;;;;13.32;9.25;;;;;;;23.60;100.00;96529.75;5051352;28;20353;-77
2022/07/22 06:55:07;;;;;;;11.68;9.63;;;;;;;23.48;99.84;96532.44;5055174;28;20032;-77
2022/07/22 06:57:37;;;;;;;12.45;9.02;;;;;;;23.72;99.50;96525.22;5060247;28;20015;-77
2022/07/22 07:00:05;;;;;;;12.40;9.80;;;;;;;23.65;97.71;96524.50;5059314;28;20036;-78
2022/07/22 07:02:33;;;;;;;11.38;9.07;;;;;;;23.86;97.28;96525.78;5050596;28;20093;-78
2022/07/22 07:05:00;;;;;;;12.48;9.30;;;;;;;24.27;96.84;96532.81;5044441;28;20032;-78
2022/07/22 07:07:26;;;;;;;10.05;8.25;;;;;;;24.97;91.04;96525.50;5058452;28;20517;-79
2022/07/22 07:09:55;;;;;;;10.10;8.68;;;;;;;24.58;92.19;96526.19;5052893;28;20028;-78
2022/07/22 07:12:31;;;;;;;10.27;9.10;;;;;;;25.05;88.46;96523.25;5057921;28;20489;-80
2022/07/22 07:15:18;;;;;;;11.73;9.02;;;;;;;25.26;88.31;96518.22;5048699;28;20598;-79
2022/07/22 07:17:44;;;;;;;11.57;8.73;;;;;;;25.27;86.46;96519.84;5053335;28;20032;-78
2022/07/22 07:20:14;;;;;;;13.30;8.50;;;;;;;25.86;81.70;96512.09;5030689;28;20029;-78
2022/07/22 07:22:39;;;;;;;10.77;9.07;;;;;;;25.14;87.08;96516.41;5045793;28;20481;-78
2022/07/22 07:25:07;;;;;;;10.98;8.70;;;;;;;26.07;80.69;96505.09;5060140;28;20115;-79
2022/07/22 07:27:34;;;;;;;11.38;9.48;;;;;;;26.69;77.01;96509.28;5052656;28;20128;-78
2022/07/22 07:30:04;;;;;;;12.10;8.88;;;;;;;25.99;75.79;96505.50;5048897;28;20032;-78
2022/07/22 07:32:31;;;;;;;13.32;10.48;;;;;;;26.13;79.88;96506.78;5059273;28;20040;-78
2022/07/22 07:34:56;;;;;;;10.48;8.70;;;;;;;26.51;74.92;96511.28;5055734;28;20029;-78
2022/07/22 07:37:23;;;;;;;12.15;8.77;;;;;;;26.72;75.75;96500.69;5052233;28;20055;-78
2022/07/22 07:39:49;;;;;;;13.23;8.65;;;;;;;27.06;71.32;96497.75;5045542;28;20417;-78
2022/07/22 07:42:14;;;;;;;13.65;9.20;;;;;;;26.13;75.65;96511.38;5058677;28;20443;-78
2022/07/22 07:44:41;;;;;;;10.90;7.80;;;;;;;27.21;70.33;96497.91;5039363;28;20079;-78
2022/07/22 07:47:06;;;;;;;10.88;8.45;;;;;;;28.06;66.33;96497.88;5075407;28;20058;-78
2022/07/22 07:49:32;;;;;;;12.32;9.05;;;;;;;27.91;65.07;96488.63;5060939;28;20036;-78
2022/07/22 07:51:58;;;;;;;10.68;8.27;;;;;;;27.28;67.29;96490.41;5080277;28;20029;-78
2022/07/22 07:54:24;;;;;;;11.70;8.00;;;;;;;27.57;66.67;96492.75;5055998;28;20032;-77
2022/07/22 07:56:52;;;;;;;12.18;8.95;;;;;;;26.94;69.26;96485.25;5048602;28;20060;-78
2022/07/22 07:59:18;;;;;;;12.23;9.65;;;;;;;28.51;61.24;96488.34;5060878;28;20515;-78
2022/07/22 08:01:45;;;;;;;10.85;8.10;;;;;;;28.05;62.53;96488.16;5048981;28;20013;-77
2022/07/22 08:04:11;;;;;;;11.50;8.30;;;;;;;27.48;64.27;96484.31;5060578;28;20085;-78
2022/07/22 08:06:37;;;;;;;11.40;7.82;;;;;;;27.27;69.24;96480.69;5044080;28;20029;-78
2022/07/22 08:09:02;;;;;;;10.63;7.88;;;;;;;27.52;66.48;96487.31;5067438;28;20047;-78
2022/07/22 08:11:34;;;;;;;10.15;7.95;;;;;;;28.12;59.85;96484.13;5061347;28;20016;-78
2022/07/22 08:14:19;;;;;;;9.63;7.57;;;;;;;28.89;57.28;96471.59;5054782;28;20690;-78
2022/07/22 08:17:20;;;;;;;9.07;6.80;;;;;;;28.84;56.18;96489.72;5013053;28;20038;-77
2022/07/22 08:19:45;;;;;;;9.13;7.07;;;;;;;28.96;55.50;96478.63;5047917;28;20040;-78
2022/07/22 08:22:12;;;;;;;10.52;6.70;;;;;;;29.41;53.19;96477.00;5061119;28;20048;-78
2022/07/22 08:24:41;;;;;;;7.80;6.43;;;;;;;29.40;50.05;96470.78;5045432;28;20031;-78
2022/07/22 08:27:11;;;;;;;10.52;7.05;;;;;;;29.51;48.75;96466.97;5060323;28;20178;-78
2022/07/22 08:29:37;;;;;;;8.15;6.43;;;;;;;29.70;49.30;96469.94;5051578;28;20032;-78
2022/07/22 08:32:03;;;;;;;10.38;6.88;;;;;;;29.21;50.01;96475.97;5057569;28;20016;-78
2022/07/22 08:34:28;;;;;;;7.85;6.10;;;;;;;29.75;49.58;96467.22;5054124;28;20119;-78
2022/07/22 08:36:55;;;;;;;7.93;6.20;;;;;;;31.11;45.81;96471.34;5068574;28;20063;-78
2022/07/22 08:39:21;;;;;;;10.20;5.57;;;;;;;31.41;44.29;96470.28;5049162;28;20034;-78
2022/07/22 08:41:47;;;;;;;6.57;5.00;;;;;;;31.36;43.01;96466.84;5077226;28;20024;-78
2022/07/22 08:44:13;;;;;;;7.57;5.65;;;;;;;31.97;42.89;96457.22;5058221;28;20089;-78
2022/07/22 08:46:39;;;;;;;9.68;5.70;;;;;;;32.09;41.54;96463.03;5059884;28;20817;-78
2022/07/22 08:49:19;;;;;;;6.82;5.68;;;;;;;31.88;42.26;96465.22;5063126;28;20063;-78
2022/07/22 08:52:15;;;;;;;7.18;5.22;;;;;;;32.55;40.57;96460.53;5040743;28;20036;-78
2022/07/22 08:54:47;;;;;;;7.85;5.60;;;;;;;31.89;40.51;96459.50;5053354;28;20024;-78
2022/07/22 08:57:14;;;;;;;6.55;5.07;;;;;;;31.93;40.34;96463.25;5053062;28;20024;-78
2022/07/22 08:59:55;;;;;;;9.65;5.20;;;;;;;33.00;38.57;96454.69;5061318;28;20031;-79
2022/07/22 09:02:22;;;;;;;7.05;5.13;;;;;;;33.09;38.70;96452.91;5063508;28;20756;-78
2022/07/22 09:04:56;;;;;;;7.07;4.93;;;;;;;33.05;38.77;96463.59;5083321;28;20031;-79
2022/07/22 09:07:31;;;;;;;7.82;6.10;;;;;;;31.85;40.33;96457.59;5058684;28;20042;-78
2022/07/22 09:10:33;;;;;;;7.65;5.70;;;;;;;31.83;40.76;96446.22;5057008;28;20043;-78
2022/07/22 09:13:16;;;;;;;7.90;6.10;;;;;;;31.25;41.55;96444.31;5074181;28;20108;-78
2022/07/22 09:15:55;;;;;;;8.82;5.32;;;;;;;33.06;38.64;96443.41;5039234;28;20445;-78
2022/07/22 09:18:56;;;;;;;6.93;5.45;;;;;;;33.65;38.11;96434.78;5068373;28;20072;-78
2022/07/22 09:22:00;;;;;;;8.40;6.00;;;;;;;32.08;39.96;96439.66;5017173;28;20042;-78
2022/07/22 09:24:35;;;;;;;9.32;6.65;;;;;;;32.34;39.09;96440.13;5016426;28;20032;-78
2022/07/22 09:27:25;;;;;;;13.07;9.32;;;;;;;32.33;40.21;96435.81;5055176;28;20036;-79
2022/07/22 09:30:26;;;;;;;10.07;6.32;;;;;;;32.27;40.45;96436.97;4950139;28;20054;-78
2022/07/22 09:33:01;;;;;;;7.22;5.47;;;;;;;31.95;40.53;96434.94;5030170;28;20691;-78
2022/07/22 09:36:04;;;;;;;12.20;8.02;;;;;;;33.19;39.24;96430.13;5042523;28;20033;-78
2022/07/22 09:38:34;;;;;;;7.85;6.25;;;;;;;32.10;39.38;96430.13;5055903;28;20115;-79
2022/07/22 09:41:01;;;;;;;8.20;5.57;;;;;;;33.18;38.20;96423.06;5069465;28;20031;-78
2022/07/22 09:43:33;;;;;;;8.60;5.82;;;;;;;33.13;38.12;96414.97;5044191;28;20047;-78
2022/07/22 09:45:59;;;;;;;8.10;6.30;;;;;;;32.83;38.41;96417.06;5041071;28;20025;-77
2022/07/22 09:48:47;;;;;;;7.55;6.22;;;;;;;32.99;39.46;96410.31;5045969;28;20142;-78
2022/07/22 09:51:34;;;;;;;6.95;5.70;;;;;;;33.98;37.11;96409.00;5061638;28;20051;-78
2022/07/22 09:54:20;;;;;;;9.88;5.85;;;;;;;33.65;36.87;96411.03;5083289;28;20039;-78
2022/07/22 09:56:47;;;;;;;10.60;6.00;;;;;;;32.90;37.56;96416.69;5059602;28;20059;-78
2022/07/22 09:59:16;;;;;;;8.15;5.53;;;;;;;33.62;37.23;96408.91;5037430;28;20081;-78
2022/07/22 10:01:50;;;;;;;8.10;5.15;;;;;;;34.70;34.50;96412.91;5032095;28;20070;-78
2022/07/22 10:04:20;;;;;;;9.70;5.95;;;;;;;33.77;36.30;96407.78;5034132;28;20101;-79
2022/07/22 10:06:48;;;;;;;8.02;5.95;;;;;;;34.17;35.87;96408.06;5049171;28;20099;-78
2022/07/22 10:09:17;;;;;;;8.13;5.97;;;;;;;34.11;35.55;96406.59;5048647;28;20764;-78
2022/07/22 10:11:45;;;;;;;9.25;7.43;;;;;;;34.50;35.18;96398.56;5061161;28;20032;-78
2022/07/22 10:14:17;;;;;;;6.82;5.00;;;;;;;34.82;34.14;96398.69;5051106;28;20042;-78
2022/07/22 10:16:43;;;;;;;8.65;5.85;;;;;;;33.94;34.50;96391.63;5045067;28;20025;-78
2022/07/22 10:19:10;;;;;;;6.28;5.45;;;;;;;33.56;35.30;96391.84;5062782;28;20028;-79
2022/07/22 10:21:37;;;;;;;8.45;5.90;;;;;;;33.88;34.40;96390.13;5054247;28;20024;-79
2022/07/22 10:24:13;;;;;;;9.30;5.97;;;;;;;32.67;35.22;96385.78;5072313;28;20029;-78
2022/07/22 10:26:46;;;;;;;;;;;;;;;34.25;34.12;96386.31;5036709;28;20036;-78
2022/07/22 10:29:39;;;;;;;7.22;5.43;;;;;;;33.81;33.61;96392.44;5062238;28;19920;-78
2022/07/22 10:32:32;;;;;;;7.60;5.30;;;;;;;34.79;33.00;96386.44;5068102;28;20150;-75
2022/07/22 10:34:58;;;;;;;10.52;5.75;;;;;;;33.37;34.75;96380.22;5027194;28;20037;-79
2022/07/22 10:37:38;;;;;;;7.65;6.63;;;;;;;33.74;34.38;96383.88;5029966;28;20020;-78
2022/07/22 10:40:12;;;;;;;6.95;5.60;;;;;;;34.62;33.27;96372.69;5073919;28;20043;-79
2022/07/22 10:43:00;;;;;;;7.95;5.22;;;;;;;36.21;31.76;96378.22;5048379;28;20059;-78
2022/07/22 10:45:28;;;;;;;6.53;5.63;;;;;;;36.19;31.33;96372.28;5047654;28;20034;-80
2022/07/22 10:47:56;;;;;;;8.70;7.20;;;;;;;35.47;32.50;96378.16;5046808;28;20044;-79
2022/07/22 10:50:37;;;;;;;7.10;5.30;;;;;;;35.09;31.29;96375.91;5075799;28;20024;-79
2022/07/22 10:53:11;;;;;;;10.85;9.73;;;;;;;35.99;31.88;96362.72;5032202;28;20040;-79
2022/07/22 10:55:39;;;;;;;8.70;7.45;;;;;;;36.18;30.87;96367.91;5053743;28;20686;-79
2022/07/22 10:58:35;;;;;;;8.20;5.63;;;;;;;36.08;31.38;96357.25;5052336;28;20131;-80
2022/07/22 11:01:04;;;;;;;12.77;11.57;;;;;;;35.83;31.25;96350.63;5047923;28;20056;-79
2022/07/22 11:03:32;;;;;;;10.85;9.68;;;;;;;35.41;31.66;96355.59;5075885;28;20044;-80
2022/07/22 11:06:22;;;;;;;6.82;5.80;;;;;;;35.86;30.48;96350.78;5056247;28;20043;-80
2022/07/22 11:08:53;;;;;;;6.57;5.50;;;;;;;36.31;31.04;96349.72;5047725;28;20345;-79
2022/07/22 11:11:50;;;;;;;7.65;5.63;;;;;;;36.80;30.24;96342.13;5060013;28;20173;-79
2022/07/22 11:14:18;;;;;;;6.80;5.25;;;;;;;36.60;30.31;96346.34;5055055;28;20486;-79
2022/07/22 11:16:46;;;;;;;7.60;5.30;;;;;;;36.77;29.59;96335.34;5037332;28;20033;-78
2022/07/22 11:19:12;;;;;;;8.25;5.32;;;;;;;36.72;31.20;96335.53;5060101;28;20397;-79
2022/07/22 11:21:39;;;;;;;9.93;5.50;;;;;;;36.53;30.26;96338.63;5073069;28;20116;-79
2022/07/22 11:24:07;;;;;;;6.05;5.40;;;;;;;35.98;30.82;96330.97;5077639;28;20535;-80
2022/07/22 11:26:42;;;;;;;7.05;5.22;;;;;;;37.14;29.29;96329.47;5054456;28;20622;-79
2022/07/22 11:29:09;;;;;;;8.77;5.63;;;;;;;37.12;29.56;96329.00;5044786;28;20115;-80
2022/07/22 11:31:36;;;;;;;6.55;5.50;;;;;;;36.58;29.15;96326.69;5043232;28;20040;-79